Zephyr Cove, Nevada
Current Conditions -  °F | °C
As of 2:53 PM on Wednesday 17 Dec 2014 (Local Time) from KTVL Reporting Station
Overcast Overcast  
Wind Chill: 29°   Ceiling: 3600
Heat Index: 37°   Visibility: 10mi
Dew Point: 24°   Wind: 12mph
Humidity: 59%   Direction: 200°SSW
Pressure: 29.96"   Gusts: NA
Location:  39°N, 119.96°W
Report Text: KTVL 172253Z AUTO 20010KT 10SM SCT029 OVC036 03/M04 A2996 RMK AO2 SLP135 T00281044
Loading
Personal Weather Stations






























Interactive Weather Map New forecast layout! Learn more

10-Day Weather Forecast

Advertisements
Track Severe Weather on mobile